sensor_id;sensor_type;location;lat;lon;timestamp;temperature;humidity
25346;DHT22;13300;51.032;3.710;2023-02-28T00:02:57;3.90;99.90
25346;DHT22;13300;51.032;3.710;2023-02-28T00:09:44;3.90;99.90
25346;DHT22;13300;51.032;3.710;2023-02-28T00:33:49;3.80;99.90
25346;DHT22;13300;51.032;3.710;2023-02-28T00:47:25;3.70;99.90
25346;DHT22;13300;51.032;3.710;2023-02-28T00:53:59;3.60;99.90
25346;DHT22;13300;51.032;3.710;2023-02-28T00:56:42;3.60;99.90
25346;DHT22;13300;51.032;3.710;2023-02-28T01:13:12;3.60;99.90
25346;DHT22;13300;51.032;3.710;2023-02-28T01:20:01;3.50;99.90
25346;DHT22;13300;51.032;3.710;2023-02-28T01:23:10;3.70;99.90
25346;DHT22;13300;51.032;3.710;2023-02-28T01:26:33;3.60;99.90
25346;DHT22;13300;51.032;3.710;2023-02-28T01:29:50;3.60;99.90
25346;DHT22;13300;51.032;3.710;2023-02-28T02:00:41;3.50;99.90
25346;DHT22;13300;51.032;3.710;2023-02-28T02:07:09;3.50;99.90
25346;DHT22;13300;51.032;3.710;2023-02-28T02:17:36;3.40;99.90
25346;DHT22;13300;51.032;3.710;2023-02-28T02:45:36;3.30;99.90
25346;DHT22;13300;51.032;3.710;2023-02-28T02:48:52;3.30;99.90
25346;DHT22;13300;51.032;3.710;2023-02-28T02:55:15;3.20;99.90
25346;DHT22;13300;51.032;3.710;2023-02-28T02:58:29;3.20;99.90
25346;DHT22;13300;51.032;3.710;2023-02-28T04:44:27;4.00;99.90
25346;DHT22;13300;51.032;3.710;2023-02-28T05:44:13;4.70;99.90
25346;DHT22;13300;51.032;3.710;2023-02-28T06:05:03;4.80;99.90
25346;DHT22;13300;51.032;3.710;2023-02-28T06:14:27;4.50;99.90
25346;DHT22;13300;51.032;3.710;2023-02-28T06:19:32;4.60;99.90
25346;DHT22;13300;51.032;3.710;2023-02-28T06:22:24;4.70;99.90
25346;DHT22;13300;51.032;3.710;2023-02-28T06:24:56;4.70;99.90
25346;DHT22;13300;51.032;3.710;2023-02-28T06:33:33;4.60;99.90
25346;DHT22;13300;51.032;3.710;2023-02-28T06:36:25;4.60;99.90
25346;DHT22;13300;51.032;3.710;2023-02-28T06:38:54;4.50;99.90
25346;DHT22;13300;51.032;3.710;2023-02-28T06:41:35;4.60;99.90
25346;DHT22;13300;51.032;3.710;2023-02-28T06:44:11;4.60;99.90
25346;DHT22;13300;51.032;3.710;2023-02-28T06:46:41;4.70;99.90
25346;DHT22;13300;51.032;3.710;2023-02-28T06:49:11;4.60;99.90
25346;DHT22;13300;51.032;3.710;2023-02-28T06:51:38;4.60;99.90
25346;DHT22;13300;51.032;3.710;2023-02-28T06:54:07;4.60;99.90
25346;DHT22;13300;51.032;3.710;2023-02-28T06:56:52;4.50;99.90
25346;DHT22;13300;51.032;3.710;2023-02-28T06:59:27;4.60;99.90
25346;DHT22;13300;51.032;3.710;2023-02-28T07:02:01;4.70;99.90
25346;DHT22;13300;51.032;3.710;2023-02-28T07:04:44;4.60;99.90
25346;DHT22;13300;51.032;3.710;2023-02-28T07:07:28;4.60;99.90
25346;DHT22;13300;51.032;3.710;2023-02-28T07:10:10;4.70;99.90
25346;DHT22;13300;51.032;3.710;2023-02-28T07:12:39;4.80;99.90
25346;DHT22;13300;51.032;3.710;2023-02-28T07:15:06;4.80;99.90
25346;DHT22;13300;51.032;3.710;2023-02-28T07:17:53;4.80;99.90
25346;DHT22;13300;51.032;3.710;2023-02-28T07:20:25;4.90;99.90
25346;DHT22;13300;51.032;3.710;2023-02-28T07:22:52;4.90;99.90
25346;DHT22;13300;51.032;3.710;2023-02-28T07:25:28;4.80;99.90
25346;DHT22;13300;51.032;3.710;2023-02-28T07:27:56;4.60;99.90
25346;DHT22;13300;51.032;3.710;2023-02-28T07:30:33;4.60;99.90
25346;DHT22;13300;51.032;3.710;2023-02-28T07:33:22;4.60;99.90
25346;DHT22;13300;51.032;3.710;2023-02-28T07:35:59;4.80;99.90
25346;DHT22;13300;51.032;3.710;2023-02-28T07:38:30;4.90;99.90
25346;DHT22;13300;51.032;3.710;2023-02-28T07:41:06;5.00;99.90
25346;DHT22;13300;51.032;3.710;2023-02-28T07:43:37;5.10;99.90
25346;DHT22;13300;51.032;3.710;2023-02-28T07:46:09;5.10;99.90
25346;DHT22;13300;51.032;3.710;2023-02-28T07:48:59;5.10;99.90
25346;DHT22;13300;51.032;3.710;2023-02-28T07:51:35;5.20;99.90
25346;DHT22;13300;51.032;3.710;2023-02-28T07:54:06;5.20;99.90
25346;DHT22;13300;51.032;3.710;2023-02-28T07:56:33;5.40;99.90
25346;DHT22;13300;51.032;3.710;2023-02-28T07:59:02;5.50;99.90
25346;DHT22;13300;51.032;3.710;2023-02-28T08:01:38;5.60;99.90
25346;DHT22;13300;51.032;3.710;2023-02-28T08:04:28;5.70;99.90
25346;DHT22;13300;51.032;3.710;2023-02-28T08:07:10;5.80;99.90
25346;DHT22;13300;51.032;3.710;2023-02-28T08:12:14;6.20;99.90
25346;DHT22;13300;51.032;3.710;2023-02-28T08:14:53;6.30;99.90
25346;DHT22;13300;51.032;3.710;2023-02-28T08:17:29;6.50;99.90
25346;DHT22;13300;51.032;3.710;2023-02-28T08:19:58;6.70;99.90
25346;DHT22;13300;51.032;3.710;2023-02-28T08:22:37;6.90;99.90
25346;DHT22;13300;51.032;3.710;2023-02-28T08:25:06;7.00;99.90
25346;DHT22;13300;51.032;3.710;2023-02-28T08:27:43;7.10;99.90
25346;DHT22;13300;51.032;3.710;2023-02-28T08:30:18;7.10;99.90
25346;DHT22;13300;51.032;3.710;2023-02-28T08:32:53;7.30;99.90
25346;DHT22;13300;51.032;3.710;2023-02-28T08:35:36;7.60;99.90
25346;DHT22;13300;51.032;3.710;2023-02-28T08:38:08;7.70;99.90
25346;DHT22;13300;51.032;3.710;2023-02-28T08:40:44;7.70;99.90
25346;DHT22;13300;51.032;3.710;2023-02-28T08:43:31;7.60;99.90
25346;DHT22;13300;51.032;3.710;2023-02-28T08:48:37;7.00;99.90
25346;DHT22;13300;51.032;3.710;2023-02-28T08:54:23;6.90;99.90
25346;DHT22;13300;51.032;3.710;2023-02-28T08:56:59;7.00;99.90
25346;DHT22;13300;51.032;3.710;2023-02-28T08:59:30;6.90;99.90
25346;DHT22;13300;51.032;3.710;2023-02-28T09:02:05;6.80;99.90
25346;DHT22;13300;51.032;3.710;2023-02-28T09:07:45;6.60;99.90
25346;DHT22;13300;51.032;3.710;2023-02-28T09:10:19;6.10;99.90
25346;DHT22;13300;51.032;3.710;2023-02-28T09:12:50;5.90;99.90
25346;DHT22;13300;51.032;3.710;2023-02-28T09:15:31;5.80;99.90
25346;DHT22;13300;51.032;3.710;2023-02-28T09:18:10;5.80;99.90
25346;DHT22;13300;51.032;3.710;2023-02-28T09:20:46;5.90;99.90
25346;DHT22;13300;51.032;3.710;2023-02-28T09:23:21;5.90;99.90
25346;DHT22;13300;51.032;3.710;2023-02-28T09:25:57;5.90;99.90
25346;DHT22;13300;51.032;3.710;2023-02-28T09:28:24;6.00;99.90
25346;DHT22;13300;51.032;3.710;2023-02-28T09:31:00;6.00;99.90
25346;DHT22;13300;51.032;3.710;2023-02-28T09:33:34;6.00;99.90
25346;DHT22;13300;51.032;3.710;2023-02-28T09:38:49;5.90;99.90
25346;DHT22;13300;51.032;3.710;2023-02-28T09:41:26;5.90;99.90
25346;DHT22;13300;51.032;3.710;2023-02-28T09:50:51;5.80;99.90
25346;DHT22;13300;51.032;3.710;2023-02-28T09:53:45;6.00;99.90
25346;DHT22;13300;51.032;3.710;2023-02-28T09:56:50;6.10;99.90
25346;DHT22;13300;51.032;3.710;2023-02-28T10:02:12;6.30;99.90
25346;DHT22;13300;51.032;3.710;2023-02-28T10:08:40;6.30;99.90
25346;DHT22;13300;51.032;3.710;2023-02-28T10:11:23;6.30;99.90
25346;DHT22;13300;51.032;3.710;2023-02-28T10:14:14;6.10;99.90
25346;DHT22;13300;51.032;3.710;2023-02-28T10:16:44;6.30;99.90
25346;DHT22;13300;51.032;3.710;2023-02-28T10:19:31;6.30;99.90
25346;DHT22;13300;51.032;3.710;2023-02-28T10:25:41;6.60;99.90
25346;DHT22;13300;51.032;3.710;2023-02-28T10:29:03;6.90;99.90
25346;DHT22;13300;51.032;3.710;2023-02-28T10:35:19;7.30;99.90
25346;DHT22;13300;51.032;3.710;2023-02-28T10:37:54;7.40;99.90
25346;DHT22;13300;51.032;3.710;2023-02-28T10:40:45;7.40;99.90
25346;DHT22;13300;51.032;3.710;2023-02-28T10:52:07;8.00;99.90
25346;DHT22;13300;51.032;3.710;2023-02-28T11:00:27;9.30;98.50
25346;DHT22;13300;51.032;3.710;2023-02-28T11:06:40;11.20;94.70
25346;DHT22;13300;51.032;3.710;2023-02-28T11:14:55;14.50;83.40
25346;DHT22;13300;51.032;3.710;2023-02-28T11:21:09;14.20;80.10
25346;DHT22;13300;51.032;3.710;2023-02-28T12:03:50;15.60;69.80
25346;DHT22;13300;51.032;3.710;2023-02-28T12:07:16;15.60;70.30
25346;DHT22;13300;51.032;3.710;2023-02-28T12:41:07;15.60;65.30
25346;DHT22;13300;51.032;3.710;2023-02-28T12:43:58;15.30;64.40
25346;DHT22;13300;51.032;3.710;2023-02-28T12:47:10;15.40;64.50
25346;DHT22;13300;51.032;3.710;2023-02-28T12:50:21;15.50;63.00
25346;DHT22;13300;51.032;3.710;2023-02-28T12:56:27;16.10;63.30
25346;DHT22;13300;51.032;3.710;2023-02-28T13:02:01;15.90;59.50
25346;DHT22;13300;51.032;3.710;2023-02-28T13:10:50;16.10;59.90
25346;DHT22;13300;51.032;3.710;2023-02-28T13:13:32;16.30;59.60
25346;DHT22;13300;51.032;3.710;2023-02-28T13:16:11;16.70;58.70
25346;DHT22;13300;51.032;3.710;2023-02-28T13:18:39;16.40;58.40
25346;DHT22;13300;51.032;3.710;2023-02-28T13:21:09;16.30;59.10
25346;DHT22;13300;51.032;3.710;2023-02-28T13:24:14;16.30;59.20
25346;DHT22;13300;51.032;3.710;2023-02-28T13:29:35;15.40;59.10
25346;DHT22;13300;51.032;3.710;2023-02-28T13:37:42;15.50;58.80
25346;DHT22;13300;51.032;3.710;2023-02-28T13:40:32;14.80;58.70
25346;DHT22;13300;51.032;3.710;2023-02-28T13:43:13;14.30;59.80
25346;DHT22;13300;51.032;3.710;2023-02-28T13:46:06;14.50;60.30
25346;DHT22;13300;51.032;3.710;2023-02-28T13:48:37;14.50;60.40
25346;DHT22;13300;51.032;3.710;2023-02-28T14:03:01;15.60;58.40
25346;DHT22;13300;51.032;3.710;2023-02-28T14:05:32;15.70;58.70
25346;DHT22;13300;51.032;3.710;2023-02-28T14:08:15;15.50;58.90
25346;DHT22;13300;51.032;3.710;2023-02-28T14:10:52;15.40;59.10
25346;DHT22;13300;51.032;3.710;2023-02-28T14:13:47;15.00;59.20
25346;DHT22;13300;51.032;3.710;2023-02-28T14:16:25;14.30;60.30
25346;DHT22;13300;51.032;3.710;2023-02-28T14:19:14;14.10;61.00
25346;DHT22;13300;51.032;3.710;2023-02-28T14:30:40;15.00;61.10
25346;DHT22;13300;51.032;3.710;2023-02-28T14:33:35;14.70;60.30
25346;DHT22;13300;51.032;3.710;2023-02-28T14:36:27;14.30;60.90
25346;DHT22;13300;51.032;3.710;2023-02-28T14:39:05;14.00;61.60
25346;DHT22;13300;51.032;3.710;2023-02-28T14:41:38;13.50;62.50
25346;DHT22;13300;51.032;3.710;2023-02-28T14:44:27;13.30;62.40
25346;DHT22;13300;51.032;3.710;2023-02-28T14:46:58;13.70;62.40
25346;DHT22;13300;51.032;3.710;2023-02-28T14:49:31;13.70;61.70
25346;DHT22;13300;51.032;3.710;2023-02-28T14:54:38;12.60;63.20
25346;DHT22;13300;51.032;3.710;2023-02-28T14:57:30;12.00;64.00
25346;DHT22;13300;51.032;3.710;2023-02-28T15:02:33;10.40;68.70
25346;DHT22;13300;51.032;3.710;2023-02-28T15:07:47;9.10;71.80
25346;DHT22;13300;51.032;3.710;2023-02-28T15:10:26;8.80;72.30
25346;DHT22;13300;51.032;3.710;2023-02-28T15:13:04;8.50;73.50
25346;DHT22;13300;51.032;3.710;2023-02-28T15:15:52;8.30;74.70
25346;DHT22;13300;51.032;3.710;2023-02-28T15:18:32;8.00;74.60
25346;DHT22;13300;51.032;3.710;2023-02-28T15:21:03;7.90;75.40
25346;DHT22;13300;51.032;3.710;2023-02-28T15:23:31;7.90;75.60
25346;DHT22;13300;51.032;3.710;2023-02-28T15:25:59;7.80;75.80
25346;DHT22;13300;51.032;3.710;2023-02-28T15:28:34;7.70;76.50
25346;DHT22;13300;51.032;3.710;2023-02-28T15:31:03;7.60;77.20
25346;DHT22;13300;51.032;3.710;2023-02-28T15:33:31;7.40;77.90
25346;DHT22;13300;51.032;3.710;2023-02-28T15:36:18;7.50;77.60
25346;DHT22;13300;51.032;3.710;2023-02-28T15:38:51;7.40;78.30
25346;DHT22;13300;51.032;3.710;2023-02-28T15:41:29;7.40;78.60
25346;DHT22;13300;51.032;3.710;2023-02-28T15:47:22;7.40;78.90
25346;DHT22;13300;51.032;3.710;2023-02-28T15:50:05;7.40;79.50
25346;DHT22;13300;51.032;3.710;2023-02-28T15:52:42;7.30;79.30
25346;DHT22;13300;51.032;3.710;2023-02-28T15:57:35;7.00;79.90
25346;DHT22;13300;51.032;3.710;2023-02-28T16:00:03;6.90;80.60
25346;DHT22;13300;51.032;3.710;2023-02-28T16:02:36;6.90;81.10
25346;DHT22;13300;51.032;3.710;2023-02-28T16:07:41;6.80;81.80
25346;DHT22;13300;51.032;3.710;2023-02-28T16:10:10;6.60;82.30
25346;DHT22;13300;51.032;3.710;2023-02-28T16:12:37;6.60;82.70
25346;DHT22;13300;51.032;3.710;2023-02-28T16:15:26;6.70;83.00
25346;DHT22;13300;51.032;3.710;2023-02-28T16:17:57;6.60;82.90
25346;DHT22;13300;51.032;3.710;2023-02-28T16:20:25;6.60;83.30
25346;DHT22;13300;51.032;3.710;2023-02-28T16:22:51;6.50;83.20
25346;DHT22;13300;51.032;3.710;2023-02-28T16:25:20;6.60;83.70
25346;DHT22;13300;51.032;3.710;2023-02-28T16:27:49;6.50;84.00
25346;DHT22;13300;51.032;3.710;2023-02-28T16:49:38;6.10;86.10
25346;DHT22;13300;51.032;3.710;2023-02-28T16:52:12;6.10;86.40
25346;DHT22;13300;51.032;3.710;2023-02-28T16:54:39;6.10;86.40
25346;DHT22;13300;51.032;3.710;2023-02-28T16:57:13;6.10;87.00
25346;DHT22;13300;51.032;3.710;2023-02-28T16:59:42;6.10;86.90
25346;DHT22;13300;51.032;3.710;2023-02-28T17:05:20;6.10;87.40
25346;DHT22;13300;51.032;3.710;2023-02-28T17:18:04;6.10;88.30
25346;DHT22;13300;51.032;3.710;2023-02-28T18:12:32;5.40;92.00
25346;DHT22;13300;51.032;3.710;2023-02-28T18:15:45;5.50;92.30
25346;DHT22;13300;51.032;3.710;2023-02-28T18:18:19;5.40;92.20
25346;DHT22;13300;51.032;3.710;2023-02-28T18:31:10;5.40;92.50
25346;DHT22;13300;51.032;3.710;2023-02-28T18:33:37;5.30;92.80
25346;DHT22;13300;51.032;3.710;2023-02-28T18:36:04;5.20;93.00
25346;DHT22;13300;51.032;3.710;2023-02-28T18:38:41;5.20;93.00
25346;DHT22;13300;51.032;3.710;2023-02-28T18:44:46;5.20;93.20
25346;DHT22;13300;51.032;3.710;2023-02-28T18:50:38;5.10;93.50
25346;DHT22;13300;51.032;3.710;2023-02-28T18:56:41;4.90;94.10
25346;DHT22;13300;51.032;3.710;2023-02-28T18:59:08;4.80;94.20
25346;DHT22;13300;51.032;3.710;2023-02-28T19:01:38;4.90;94.40
25346;DHT22;13300;51.032;3.710;2023-02-28T19:04:05;4.90;94.40
25346;DHT22;13300;51.032;3.710;2023-02-28T22:24:05;3.90;99.90
25346;DHT22;13300;51.032;3.710;2023-02-28T22:26:58;3.90;99.90
25346;DHT22;13300;51.032;3.710;2023-02-28T22:32:36;3.90;99.90
25346;DHT22;13300;51.032;3.710;2023-02-28T22:38:17;3.80;99.90
25346;DHT22;13300;51.032;3.710;2023-02-28T23:27:46;3.80;99.90
25346;DHT22;13300;51.032;3.710;2023-02-28T23:30:42;4.00;99.90
25346;DHT22;13300;51.032;3.710;2023-02-28T23:37:29;3.90;99.90
